Time;durP1;ratioP1;P1;durP2;ratioP2;P2;SDS_P1;SDS_P2;PMS_P1;PMS_P2;Temp;Humidity;BMP_temperature;BMP_pressure;BME280_temperature;BME280_humidity;BME280_pressure;Samples;Min_cycle;Max_cycle;Signal;HPM_P1;HPM_P2
2022/07/09 00:01:23;;;;;;;6.57;2.85;;;12.10;99.90;;;;;;5047595;28;19984;-64
2022/07/09 00:03:51;;;;;;;7.97;3.05;;;12.00;99.90;;;;;;5047478;28;20051;-64
2022/07/09 00:06:19;;;;;;;4.60;3.47;;;12.00;99.90;;;;;;5030763;28;20317;-63
2022/07/09 00:08:46;;;;;;;3.28;2.55;;;11.90;99.90;;;;;;5046832;28;20586;-63
2022/07/09 00:11:13;;;;;;;5.95;2.88;;;11.90;99.90;;;;;;5037396;28;20356;-64
2022/07/09 00:13:40;;;;;;;;;;;11.90;99.90;;;;;;5025393;28;20118;-63
2022/07/09 00:16:07;;;;;;;4.75;2.67;;;11.90;99.90;;;;;;5028040;28;20458;-63
2022/07/09 00:18:34;;;;;;;7.07;3.30;;;11.90;99.90;;;;;;5027312;28;20198;-64
2022/07/09 00:21:02;;;;;;;4.47;2.92;;;11.90;99.90;;;;;;5029146;28;20356;-64
2022/07/09 00:23:29;;;;;;;3.03;2.45;;;11.90;99.90;;;;;;5029069;28;20101;-63
2022/07/09 00:25:56;;;;;;;4.55;3.10;;;11.80;99.90;;;;;;5007940;28;20824;-63
2022/07/09 00:28:23;;;;;;;;;;;11.80;99.90;;;;;;5029302;28;20050;-63
2022/07/09 00:30:50;;;;;;;3.72;3.00;;;11.80;99.90;;;;;;5025855;28;20035;-64
2022/07/09 00:33:17;;;;;;;7.10;2.75;;;11.80;99.90;;;;;;5007440;28;20064;-64
2022/07/09 00:35:44;;;;;;;3.72;2.65;;;11.80;99.90;;;;;;5039307;28;20035;-64
2022/07/09 00:38:11;;;;;;;;;;;11.80;99.90;;;;;;5049236;28;20035;-63
2022/07/09 00:40:38;;;;;;;2.83;2.55;;;11.80;99.90;;;;;;5047481;28;19985;-63
2022/07/09 00:43:16;;;;;;;2.95;2.50;;;11.70;99.90;;;;;;5047109;28;20044;-63
2022/07/09 00:45:43;;;;;;;8.80;3.17;;;11.70;99.90;;;;;;5049387;28;20318;-64
2022/07/09 00:48:10;;;;;;;5.50;2.75;;;11.70;99.90;;;;;;5041545;28;20742;-63
2022/07/09 00:50:39;;;;;;;4.50;2.90;;;11.70;99.90;;;;;;5028976;28;20043;-63
2022/07/09 00:53:08;;;;;;;5.45;3.00;;;11.70;99.90;;;;;;5025129;28;20604;-63
2022/07/09 00:55:37;;;;;;;10.00;2.95;;;11.70;99.90;;;;;;5030244;28;20043;-63
2022/07/09 00:58:04;;;;;;;5.82;3.55;;;11.70;99.90;;;;;;5027022;28;20143;-63
2022/07/09 01:00:32;;;;;;;4.70;2.90;;;11.70;99.90;;;;;;5028536;28;20854;-63
2022/07/09 01:02:59;;;;;;;4.75;3.33;;;11.60;99.90;;;;;;5025313;28;20190;-63
2022/07/09 01:05:26;;;;;;;4.95;3.40;;;11.60;99.90;;;;;;5025713;28;20068;-63
2022/07/09 01:07:53;;;;;;;5.53;2.60;;;11.60;99.90;;;;;;5008126;28;20782;-63
2022/07/09 01:10:20;;;;;;;3.90;2.90;;;11.60;99.90;;;;;;5033209;28;20044;-63
2022/07/09 01:12:47;;;;;;;;;;;11.60;99.90;;;;;;5042366;28;20185;-63
2022/07/09 01:15:14;;;;;;;4.72;3.08;;;11.50;99.90;;;;;;5035587;28;19932;-63
2022/07/09 01:17:40;;;;;;;;;;;11.50;99.90;;;;;;5049399;28;20205;-62
2022/07/09 01:20:08;;;;;;;5.50;2.95;;;11.40;99.90;;;;;;5048723;28;19920;-63
2022/07/09 01:22:35;;;;;;;5.63;3.50;;;11.40;99.90;;;;;;5028362;28;20878;-59
2022/07/09 01:25:09;;;;;;;4.07;3.28;;;11.30;99.90;;;;;;5029555;28;20272;-60
2022/07/09 01:27:36;;;;;;;4.60;2.88;;;11.30;99.90;;;;;;5047101;28;20208;-58
2022/07/09 01:30:04;;;;;;;7.40;4.50;;;11.20;99.90;;;;;;5048327;28;20035;-58
2022/07/09 01:32:31;;;;;;;3.58;3.22;;;11.20;99.90;;;;;;5046627;28;20479;-60
2022/07/09 01:34:58;;;;;;;3.42;2.70;;;11.20;99.90;;;;;;5028351;28;20408;-59
2022/07/09 01:37:25;;;;;;;;;;;11.20;99.90;;;;;;5037678;28;20244;-59
2022/07/09 01:39:52;;;;;;;5.05;3.20;;;11.20;99.90;;;;;;5048834;28;19946;-60
2022/07/09 01:42:20;;;;;;;5.72;3.10;;;11.10;99.90;;;;;;5049973;28;20508;-60
2022/07/09 01:44:50;;;;;;;6.63;2.78;;;11.10;99.90;;;;;;5044198;28;20574;-59
2022/07/09 01:47:17;;;;;;;9.48;4.25;;;11.10;99.90;;;;;;5045571;28;20347;-59
2022/07/09 01:49:45;;;;;;;8.00;3.33;;;11.10;99.90;;;;;;5026740;28;20055;-60
2022/07/09 01:52:11;;;;;;;6.65;3.42;;;11.10;99.90;;;;;;5026671;28;20395;-60
2022/07/09 01:54:38;;;;;;;6.68;3.35;;;11.00;99.90;;;;;;5029984;28;20217;-59
2022/07/09 01:57:05;;;;;;;;;;;11.00;99.90;;;;;;5032409;28;20596;-59
2022/07/09 01:59:32;;;;;;;7.72;3.50;;;11.00;99.90;;;;;;5033379;28;20699;-59
2022/07/09 02:01:59;;;;;;;8.70;3.40;;;11.00;99.90;;;;;;5032621;28;20343;-60
2022/07/09 02:04:27;;;;;;;10.25;3.53;;;11.00;99.90;;;;;;5030454;28;20351;-60
2022/07/09 02:06:54;;;;;;;3.53;3.05;;;11.00;99.90;;;;;;5030235;28;20197;-59
2022/07/09 02:09:20;;;;;;;;;;;10.90;99.90;;;;;;5039304;28;20046;-59
2022/07/09 02:11:48;;;;;;;2.92;2.72;;;10.90;99.90;;;;;;5039343;28;20014;-60
2022/07/09 02:14:15;;;;;;;11.93;4.43;;;10.90;99.90;;;;;;5035606;28;20059;-60
2022/07/09 02:16:42;;;;;;;5.82;3.33;;;10.90;99.90;;;;;;5051074;28;20074;-60
2022/07/09 02:19:09;;;;;;;4.65;3.55;;;10.90;99.90;;;;;;5054725;28;20063;-60
2022/07/09 02:21:36;;;;;;;6.63;3.15;;;10.90;99.90;;;;;;5052836;28;20047;-63
2022/07/09 02:24:04;;;;;;;4.95;3.65;;;10.90;99.90;;;;;;5048137;28;20062;-65
2022/07/09 02:26:31;;;;;;;5.38;3.20;;;10.90;99.90;;;;;;5051168;28;20874;-64
2022/07/09 02:28:58;;;;;;;;;;;10.90;99.90;;;;;;5052032;28;20035;-63
2022/07/09 02:31:26;;;;;;;5.73;3.93;;;10.90;99.90;;;;;;5051890;28;19923;-58
2022/07/09 02:33:53;;;;;;;3.13;2.80;;;10.80;99.90;;;;;;5048085;28;20441;-61
2022/07/09 02:36:20;;;;;;;6.32;3.10;;;10.90;99.90;;;;;;5049452;28;20205;-61
2022/07/09 02:38:47;;;;;;;;;;;10.80;99.90;;;;;;5041754;28;20252;-61
2022/07/09 02:41:14;;;;;;;8.63;3.35;;;10.80;99.90;;;;;;5052575;28;20617;-61
2022/07/09 02:43:44;;;;;;;5.75;3.35;;;10.80;99.90;;;;;;5050408;28;20343;-61
2022/07/09 02:46:12;;;;;;;3.33;3.00;;;10.90;99.90;;;;;;5029707;28;20105;-61
2022/07/09 02:48:39;;;;;;;3.75;2.83;;;10.80;99.90;;;;;;5029808;28;20048;-62
2022/07/09 02:51:06;;;;;;;3.35;2.70;;;10.80;99.90;;;;;;5051403;28;20040;-61
2022/07/09 02:53:33;;;;;;;4.82;3.00;;;10.80;99.90;;;;;;5049077;28;20147;-62
2022/07/09 02:56:00;;;;;;;;;;;10.80;99.90;;;;;;5049678;28;20043;-62
2022/07/09 02:58:27;;;;;;;4.25;3.00;;;10.80;99.90;;;;;;5051088;28;20073;-62
2022/07/09 03:00:54;;;;;;;11.95;3.45;;;10.80;99.90;;;;;;5044815;28;20763;-62
2022/07/09 03:03:23;;;;;;;3.90;2.92;;;10.80;99.90;;;;;;5039498;28;20028;-62
2022/07/09 03:05:50;;;;;;;3.78;2.80;;;10.80;99.90;;;;;;5050901;28;20038;-61
2022/07/09 03:08:17;;;;;;;3.53;2.53;;;10.80;99.90;;;;;;5050058;28;20044;-63
2022/07/09 03:10:45;;;;;;;3.92;2.25;;;10.70;99.90;;;;;;5040121;28;20335;-62
2022/07/09 03:13:12;;;;;;;4.72;2.90;;;10.80;99.90;;;;;;5028962;28;20566;-62
2022/07/09 03:15:39;;;;;;;6.35;2.83;;;10.70;99.90;;;;;;5029903;28;20048;-62
2022/07/09 03:18:08;;;;;;;5.30;3.45;;;10.70;99.90;;;;;;5025851;28;20036;-62
2022/07/09 03:20:36;;;;;;;4.25;2.97;;;10.70;99.90;;;;;;5028837;28;20608;-62
2022/07/09 03:23:04;;;;;;;4.78;3.08;;;10.70;99.90;;;;;;5030275;28;20032;-62
2022/07/09 03:25:32;;;;;;;5.47;3.10;;;10.60;99.90;;;;;;5025844;28;20040;-62
2022/07/09 03:27:59;;;;;;;4.60;3.03;;;10.60;99.90;;;;;;5010143;28;20264;-62
2022/07/09 03:30:27;;;;;;;4.00;3.13;;;10.60;99.90;;;;;;5029353;28;20287;-62
2022/07/09 03:32:54;;;;;;;4.97;3.40;;;10.60;99.90;;;;;;5031428;28;20331;-62
2022/07/09 03:35:21;;;;;;;4.75;3.53;;;10.60;99.90;;;;;;5030227;28;20043;-62
2022/07/09 03:37:48;;;;;;;3.85;2.90;;;10.60;99.90;;;;;;5038135;28;20612;-62
2022/07/09 03:40:15;;;;;;;3.53;2.65;;;10.50;99.90;;;;;;5047036;28;20170;-62
2022/07/09 03:42:42;;;;;;;6.30;3.88;;;10.50;99.90;;;;;;5049025;28;20362;-62
2022/07/09 03:45:09;;;;;;;3.90;2.97;;;10.50;99.90;;;;;;5047262;28;20035;-62
2022/07/09 03:47:36;;;;;;;5.50;3.35;;;10.50;99.90;;;;;;5047673;28;20810;-62
2022/07/09 03:50:03;;;;;;;;;;;10.50;99.90;;;;;;5031265;28;20551;-62
2022/07/09 03:52:31;;;;;;;6.57;5.10;;;10.50;99.90;;;;;;5027118;28;19984;-62
2022/07/09 03:54:57;;;;;;;14.82;5.88;;;10.50;99.90;;;;;;5028713;28;20048;-62
2022/07/09 03:57:25;;;;;;;9.18;5.57;;;10.50;99.90;;;;;;5028657;28;20036;-62
2022/07/09 03:59:52;;;;;;;6.88;5.05;;;10.50;99.90;;;;;;5029750;28;20032;-61
2022/07/09 04:02:18;;;;;;;;;;;10.50;99.90;;;;;;5031700;28;20371;-61
2022/07/09 04:04:45;;;;;;;7.07;4.60;;;10.50;99.90;;;;;;5029562;28;20155;-62
2022/07/09 04:07:12;;;;;;;4.95;3.75;;;10.50;99.90;;;;;;5013614;28;20747;-62
2022/07/09 04:09:39;;;;;;;7.10;5.13;;;10.40;99.90;;;;;;5032511;28;20547;-60
2022/07/09 04:12:07;;;;;;;7.03;3.58;;;10.40;99.90;;;;;;5044685;28;20050;-60
2022/07/09 04:14:34;;;;;;;5.00;3.78;;;10.40;99.90;;;;;;5028639;28;20128;-59
2022/07/09 04:17:01;;;;;;;5.22;3.35;;;10.40;99.90;;;;;;5027157;28;20216;-60
2022/07/09 04:19:28;;;;;;;5.93;3.40;;;10.40;99.90;;;;;;5032780;28;20051;-61
2022/07/09 04:21:55;;;;;;;6.05;2.97;;;10.50;99.90;;;;;;5048530;28;20035;-59
2022/07/09 04:24:22;;;;;;;4.47;4.07;;;10.50;99.90;;;;;;5049368;28;20054;-58
2022/07/09 04:26:49;;;;;;;6.53;3.78;;;10.60;99.90;;;;;;5048696;28;20046;-58
2022/07/09 04:29:16;;;;;;;3.92;3.10;;;10.60;99.90;;;;;;5051027;28;20460;-58
2022/07/09 04:31:43;;;;;;;;;;;10.70;99.90;;;;;;5030982;28;20908;-58
2022/07/09 04:34:10;;;;;;;5.38;3.97;;;10.80;99.90;;;;;;5012939;28;20690;-58
2022/07/09 04:36:37;;;;;;;5.82;3.53;;;10.80;99.90;;;;;;5049405;28;20697;-57
2022/07/09 04:39:04;;;;;;;;;;;10.90;99.90;;;;;;5044368;28;20039;-59
2022/07/09 04:41:31;;;;;;;4.40;3.30;;;10.90;99.90;;;;;;5050352;28;19930;-57
2022/07/09 04:43:58;;;;;;;5.38;3.70;;;11.00;99.90;;;;;;5028054;28;20790;-58
2022/07/09 04:46:27;;;;;;;4.50;3.13;;;11.00;99.90;;;;;;5030900;28;20047;-58
2022/07/09 04:48:54;;;;;;;11.57;4.25;;;11.10;99.90;;;;;;5033830;28;20040;-57
2022/07/09 04:51:21;;;;;;;4.88;3.70;;;11.20;99.90;;;;;;5011474;28;20048;-58
2022/07/09 04:53:48;;;;;;;7.13;3.60;;;11.20;99.90;;;;;;5029355;28;20124;-60
2022/07/09 04:56:15;;;;;;;;;;;11.20;99.90;;;;;;5026483;28;20448;-59
2022/07/09 04:58:51;;;;;;;4.50;3.47;;;11.30;99.90;;;;;;5028375;28;19919;-57
2022/07/09 05:01:19;;;;;;;4.22;3.20;;;11.30;99.90;;;;;;5026432;28;20235;-57
2022/07/09 05:03:46;;;;;;;5.10;3.35;;;11.40;99.90;;;;;;5028702;28;20024;-58
2022/07/09 05:06:15;;;;;;;4.45;3.00;;;11.40;99.90;;;;;;5024213;28;20190;-57
2022/07/09 05:08:42;;;;;;;5.05;3.08;;;11.50;99.90;;;;;;5031794;28;20341;-58
2022/07/09 05:11:12;;;;;;;7.05;3.15;;;11.60;99.90;;;;;;5018290;28;20135;-58
2022/07/09 05:13:46;;;;;;;6.32;3.40;;;11.60;99.90;;;;;;5032454;28;20251;-58
2022/07/09 05:16:13;;;;;;;6.30;3.83;;;11.60;99.90;;;;;;5044873;28;20540;-59
2022/07/09 05:18:40;;;;;;;4.63;3.03;;;11.70;99.90;;;;;;5048986;28;20361;-58
2022/07/09 05:21:08;;;;;;;6.40;3.92;;;11.80;99.90;;;;;;5049944;28;20040;-58
2022/07/09 05:23:35;;;;;;;5.88;3.13;;;11.90;99.90;;;;;;5045579;28;20223;-58
2022/07/09 05:26:02;;;;;;;5.72;3.13;;;12.00;99.90;;;;;;5049837;28;20031;-58
2022/07/09 05:28:29;;;;;;;3.42;2.90;;;12.10;99.90;;;;;;5048051;28;20138;-57
2022/07/09 05:30:56;;;;;;;7.30;3.50;;;12.10;99.90;;;;;;5049668;28;20051;-60
2022/07/09 05:33:43;;;;;;;6.60;3.85;;;12.20;99.90;;;;;;5048586;28;20078;-58
2022/07/09 05:36:17;;;;;;;5.60;3.58;;;12.30;99.90;;;;;;5045696;28;20043;-58
2022/07/09 05:38:45;;;;;;;5.50;3.30;;;12.40;99.90;;;;;;5047027;28;20779;-58
2022/07/09 05:41:14;;;;;;;7.90;3.63;;;12.50;99.90;;;;;;5022976;28;20021;-57
2022/07/09 05:43:41;;;;;;;5.70;3.20;;;12.60;99.90;;;;;;5026190;28;20636;-57
2022/07/09 05:46:08;;;;;;;4.85;2.75;;;12.70;99.90;;;;;;5026104;28;20040;-57
2022/07/09 05:48:36;;;;;;;5.90;3.15;;;12.80;99.90;;;;;;5017806;28;20636;-58
2022/07/09 05:51:04;;;;;;;3.30;2.90;;;12.90;99.90;;;;;;5046251;28;20216;-58
2022/07/09 05:53:31;;;;;;;5.57;2.90;;;12.90;99.90;;;;;;5043394;28;20268;-59
2022/07/09 05:55:58;;;;;;;3.60;2.65;;;13.10;99.90;;;;;;5029161;28;20051;-58
2022/07/09 05:58:25;;;;;;;;;;;13.10;99.90;;;;;;5026510;28;20803;-57
2022/07/09 06:00:52;;;;;;;5.35;3.00;;;13.20;99.90;;;;;;5050102;28;19919;-58
2022/07/09 06:03:20;;;;;;;6.72;3.65;;;13.30;99.90;;;;;;5044971;28;20063;-58
2022/07/09 06:05:46;;;;;;;6.78;3.65;;;13.40;99.90;;;;;;5049024;28;20063;-58
2022/07/09 06:08:14;;;;;;;8.82;3.00;;;13.50;99.90;;;;;;5046253;28;20545;-58
2022/07/09 06:10:41;;;;;;;7.93;4.32;;;13.60;99.90;;;;;;5038587;28;20043;-58
2022/07/09 06:13:08;;;;;;;5.43;3.05;;;13.70;99.90;;;;;;5041178;28;20109;-58
2022/07/09 06:15:34;;;;;;;;;;;13.80;99.90;;;;;;5039854;28;20338;-58
2022/07/09 06:18:02;;;;;;;4.63;3.40;;;13.80;99.90;;;;;;5042849;28;19931;-58
2022/07/09 06:20:29;;;;;;;6.53;3.17;;;13.90;99.90;;;;;;5047696;28;20039;-58
2022/07/09 06:22:56;;;;;;;8.23;2.80;;;14.00;99.90;;;;;;5047244;28;20357;-57
2022/07/09 06:25:23;;;;;;;6.93;3.17;;;14.10;99.90;;;;;;5046434;28;20308;-58
2022/07/09 06:27:50;;;;;;;6.00;3.17;;;14.20;99.90;;;;;;5047607;28;20667;-57
2022/07/09 06:30:17;;;;;;;5.65;3.03;;;14.30;99.90;;;;;;5046296;28;20051;-58
2022/07/09 06:32:45;;;;;;;3.55;2.80;;;14.40;99.90;;;;;;5046997;28;20852;-58
2022/07/09 06:35:12;;;;;;;6.35;3.22;;;14.50;99.90;;;;;;5048546;28;20139;-59
2022/07/09 06:37:39;;;;;;;5.45;3.03;;;14.60;99.90;;;;;;5044905;28;20154;-58
2022/07/09 06:40:06;;;;;;;;;;;14.70;99.90;;;;;;5050210;28;20036;-57
2022/07/09 06:42:33;;;;;;;8.93;4.05;;;14.80;99.90;;;;;;5040649;28;19926;-60
2022/07/09 06:45:16;;;;;;;11.68;3.92;;;15.00;99.90;;;;;;5032038;28;20043;-58
2022/07/09 06:47:43;;;;;;;7.40;2.92;;;15.10;99.90;;;;;;5042491;28;20221;-58
2022/07/09 06:50:10;;;;;;;5.72;3.50;;;15.20;99.90;;;;;;5012998;28;20788;-58
2022/07/09 06:52:37;;;;;;;7.28;3.95;;;15.30;99.90;;;;;;5031058;28;20072;-62
2022/07/09 06:55:05;;;;;;;9.57;4.28;;;15.40;99.90;;;;;;5027567;28;20197;-59
2022/07/09 06:57:32;;;;;;;7.90;4.30;;;15.50;99.90;;;;;;5012972;28;20048;-58
2022/07/09 06:59:59;;;;;;;6.88;3.63;;;15.60;99.90;;;;;;5029400;28;20043;-59
2022/07/09 07:02:26;;;;;;;8.30;4.68;;;15.70;99.90;;;;;;5027006;28;20068;-59
2022/07/09 07:04:53;;;;;;;8.02;4.38;;;15.80;99.90;;;;;;5028913;28;20032;-58
2022/07/09 07:07:20;;;;;;;7.15;4.70;;;15.90;99.90;;;;;;5031080;28;20904;-59
2022/07/09 07:09:47;;;;;;;13.27;4.55;;;16.00;99.90;;;;;;5037395;28;20589;-59
2022/07/09 07:12:14;;;;;;;9.50;5.20;;;16.10;99.90;;;;;;5024254;28;20036;-59
2022/07/09 07:14:42;;;;;;;;;;;16.10;99.90;;;;;;5037518;28;20573;-59
2022/07/09 07:17:09;;;;;;;7.45;5.43;;;16.20;99.90;;;;;;5011561;28;19927;-59
2022/07/09 07:19:37;;;;;;;9.60;6.07;;;16.30;99.90;;;;;;5052490;28;20651;-59
2022/07/09 07:22:04;;;;;;;11.35;5.10;;;16.40;99.90;;;;;;5027940;28;20415;-57
2022/07/09 07:24:31;;;;;;;13.05;5.70;;;16.60;99.90;;;;;;5050554;28;20038;-59
2022/07/09 07:26:58;;;;;;;7.32;5.70;;;16.70;99.90;;;;;;5048614;28;20097;-54
2022/07/09 07:29:26;;;;;;;5.70;4.50;;;16.90;99.90;;;;;;5048859;28;20031;-58
2022/07/09 07:31:53;;;;;;;9.48;4.60;;;17.10;99.90;;;;;;5051960;28;20040;-62
2022/07/09 07:34:23;;;;;;;9.00;5.30;;;17.20;99.90;;;;;;5049041;28;20188;-60
2022/07/09 07:36:51;;;;;;;5.05;4.10;;;17.40;99.90;;;;;;5051857;28;20262;-55
2022/07/09 07:39:21;;;;;;;8.50;4.95;;;17.60;99.90;;;;;;5049773;28;20047;-57
2022/07/09 07:41:49;;;;;;;12.25;5.53;;;17.70;99.90;;;;;;5046749;28;20044;-64
2022/07/09 07:44:16;;;;;;;7.72;4.80;;;17.80;99.90;;;;;;5032245;28;20246;-64
2022/07/09 07:46:43;;;;;;;9.25;4.68;;;17.90;99.90;;;;;;5009278;28;20044;-63
2022/07/09 07:49:10;;;;;;;8.85;4.50;;;18.00;99.90;;;;;;5029637;28;20035;-63
2022/07/09 07:51:37;;;;;;;7.78;4.50;;;18.00;99.90;;;;;;5044410;28;20050;-63
2022/07/09 07:54:05;;;;;;;4.78;3.67;;;18.00;99.90;;;;;;5046001;28;20436;-63
2022/07/09 07:56:33;;;;;;;8.75;4.22;;;18.00;99.90;;;;;;5022350;28;20040;-64
2022/07/09 07:59:00;;;;;;;6.13;3.67;;;18.10;99.90;;;;;;5036373;28;20449;-64
2022/07/09 08:01:27;;;;;;;9.10;4.03;;;18.20;99.90;;;;;;5026161;28;20298;-66
2022/07/09 08:03:54;;;;;;;5.80;3.38;;;18.40;99.90;;;;;;5026247;28;20036;-64
2022/07/09 08:06:22;;;;;;;8.77;3.58;;;18.50;99.90;;;;;;5029750;28;20554;-66
2022/07/09 08:08:49;;;;;;;3.83;2.85;;;18.70;99.90;;;;;;5011372;28;20582;-65
2022/07/09 08:11:16;;;;;;;9.75;2.92;;;18.80;99.90;;;;;;5021871;28;20935;-65
2022/07/09 08:13:43;;;;;;;8.73;3.22;;;19.00;99.90;;;;;;5036707;28;20600;-66
2022/07/09 08:16:11;;;;;;;7.05;2.83;;;19.10;99.90;;;;;;5024281;28;20860;-65
2022/07/09 08:18:38;;;;;;;9.43;2.58;;;19.30;99.90;;;;;;5025515;28;20068;-65
2022/07/09 08:21:06;;;;;;;8.27;2.50;;;19.60;99.90;;;;;;5024803;28;20193;-65
2022/07/09 08:23:50;;;;;;;4.78;2.97;;;19.80;99.90;;;;;;5028503;28;20044;-65
2022/07/09 08:26:22;;;;;;;5.63;1.88;;;20.10;99.90;;;;;;5024984;28;20087;-65
2022/07/09 08:28:50;;;;;;;4.38;1.80;;;20.40;99.90;;;;;;5028103;28;20050;-65
2022/07/09 08:31:18;;;;;;;4.93;2.05;;;20.60;99.90;;;;;;5009226;28;20197;-66
2022/07/09 08:33:46;;;;;;;6.82;2.47;;;20.90;99.90;;;;;;5023294;28;20151;-66
2022/07/09 08:36:14;;;;;;;5.60;2.30;;;21.20;97.00;;;;;;5028710;28;20094;-66
2022/07/09 08:38:41;;;;;;;6.10;2.03;;;21.40;96.80;;;;;;5027857;28;20051;-65
2022/07/09 08:41:08;;;;;;;8.15;2.17;;;21.60;95.90;;;;;;5028163;28;20825;-66
2022/07/09 08:43:37;;;;;;;9.43;2.15;;;21.90;93.80;;;;;;5038536;28;20201;-66
2022/07/09 08:46:05;;;;;;;6.80;2.10;;;22.10;92.60;;;;;;5046944;28;20808;-66
2022/07/09 08:48:35;;;;;;;4.25;1.83;;;22.30;90.30;;;;;;5049078;28;20199;-62
2022/07/09 08:51:03;;;;;;;6.40;1.92;;;22.40;84.90;;;;;;5046181;28;20046;-63
2022/07/09 08:53:30;;;;;;;5.20;2.55;;;22.60;82.30;;;;;;5028029;28;20051;-62
2022/07/09 08:55:58;;;;;;;4.63;2.42;;;22.80;90.40;;;;;;5044622;28;20043;-63
2022/07/09 08:58:25;;;;;;;5.38;2.03;;;22.90;90.80;;;;;;5046433;28;20040;-63
2022/07/09 09:00:52;;;;;;;6.85;1.85;;;23.00;91.00;;;;;;5047011;28;20364;-63
2022/07/09 09:03:19;;;;;;;4.00;2.10;;;23.20;80.30;;;;;;5025857;28;20477;-65
2022/07/09 09:06:03;;;;;;;4.30;1.85;;;23.30;78.10;;;;;;5047685;28;20054;-64
2022/07/09 09:08:44;;;;;;;7.22;2.40;;;23.40;86.10;;;;;;5043604;28;20051;-64
2022/07/09 09:11:20;;;;;;;9.02;2.67;;;23.50;79.20;;;;;;5033611;28;20434;-64
2022/07/09 09:13:48;;;;;;;7.85;2.45;;;23.60;77.10;;;;;;5023735;28;20216;-62
2022/07/09 09:16:17;;;;;;;6.50;2.17;;;23.70;79.20;;;;;;5026771;28;20551;-63
2022/07/09 09:18:49;;;;;;;7.03;2.40;;;23.70;78.10;;;;;;5026918;28;20133;-63
2022/07/09 09:21:24;;;;;;;8.77;3.35;;;23.80;75.60;;;;;;5025045;28;20609;-65
2022/07/09 09:23:59;;;;;;;4.90;2.30;;;23.90;76.90;;;;;;5025491;28;20036;-64
2022/07/09 09:26:27;;;;;;;4.85;1.83;;;23.90;73.50;;;;;;5025941;28;20040;-64
2022/07/09 09:29:01;;;;;;;4.90;2.28;;;24.00;74.20;;;;;;5028503;28;20086;-64
2022/07/09 09:31:36;;;;;;;5.88;2.45;;;24.10;70.60;;;;;;5027032;28;20681;-63
2022/07/09 09:34:06;;;;;;;5.45;2.20;;;24.20;70.20;;;;;;5026193;28;20055;-62
2022/07/09 09:36:38;;;;;;;7.43;2.15;;;24.40;70.90;;;;;;5028568;28;20570;-64
2022/07/09 09:39:24;;;;;;;17.90;2.53;;;24.50;65.50;;;;;;5026563;28;20051;-64
2022/07/09 09:42:00;;;;;;;3.10;1.60;;;24.50;62.70;;;;;;5025285;28;20040;-64
2022/07/09 09:44:32;;;;;;;6.97;2.35;;;24.60;63.60;;;;;;5033546;28;20570;-65
2022/07/09 09:46:59;;;;;;;3.42;1.73;;;24.60;64.30;;;;;;5027178;28;20058;-64
2022/07/09 09:49:26;;;;;;;6.93;1.77;;;24.60;59.60;;;;;;5042050;28;20363;-64
2022/07/09 09:52:00;;;;;;;4.90;1.88;;;24.50;59.70;;;;;;5050393;28;20048;-64
2022/07/09 09:54:28;;;;;;;7.50;1.70;;;24.30;62.10;;;;;;5046990;28;20558;-63
2022/07/09 09:56:56;;;;;;;7.18;1.92;;;24.20;59.20;;;;;;5045457;28;20100;-64
2022/07/09 09:59:24;;;;;;;4.85;1.70;;;24.10;60.70;;;;;;5046951;28;20873;-64
2022/07/09 10:01:51;;;;;;;3.60;1.38;;;24.20;61.70;;;;;;5040068;28;20046;-64
2022/07/09 10:04:19;;;;;;;4.88;1.55;;;24.40;61.20;;;;;;5044837;28;20245;-64
2022/07/09 10:06:46;;;;;;;4.32;1.50;;;24.40;59.10;;;;;;5045249;28;20859;-64
2022/07/09 10:09:14;;;;;;;4.30;2.03;;;24.40;58.60;;;;;;5021630;28;20515;-64
2022/07/09 10:11:47;;;;;;;7.13;1.30;;;24.50;61.00;;;;;;5035728;28;20067;-64
2022/07/09 10:14:23;;;;;;;6.05;1.50;;;24.70;59.30;;;;;;5025467;28;20036;-64
2022/07/09 10:16:51;;;;;;;5.28;1.45;;;24.80;58.00;;;;;;5030969;28;20044;-64
2022/07/09 10:19:29;;;;;;;9.45;2.55;;;24.80;56.70;;;;;;5029343;28;20044;-64
2022/07/09 10:21:58;;;;;;;6.50;1.55;;;25.00;56.20;;;;;;5032390;28;20128;-62
2022/07/09 10:24:26;;;;;;;3.05;1.40;;;25.10;57.00;;;;;;5035835;28;20601;-64
2022/07/09 10:27:07;;;;;;;9.15;1.83;;;25.30;57.10;;;;;;5041338;28;20185;-64
2022/07/09 10:29:36;;;;;;;3.97;1.25;;;25.40;56.10;;;;;;5050709;28;20040;-65
2022/07/09 10:32:04;;;;;;;4.65;1.70;;;25.50;55.10;;;;;;5047776;28;20112;-65
2022/07/09 10:34:36;;;;;;;2.72;1.13;;;25.50;54.10;;;;;;5048913;28;20679;-65
2022/07/09 10:37:05;;;;;;;2.72;1.38;;;25.70;54.30;;;;;;5044013;28;20277;-66
2022/07/09 10:39:32;;;;;;;2.60;1.38;;;25.80;54.30;;;;;;5050680;28;20039;-65
2022/07/09 10:42:01;;;;;;;2.80;1.20;;;25.80;51.20;;;;;;5048992;28;20239;-66
2022/07/09 10:44:34;;;;;;;3.50;1.40;;;25.90;53.30;;;;;;5045481;28;20121;-66
2022/07/09 10:47:02;;;;;;;6.65;1.40;;;26.00;54.40;;;;;;5044273;28;20035;-65
2022/07/09 10:49:30;;;;;;;2.97;1.30;;;26.00;54.00;;;;;;5028993;28;20040;-65
2022/07/09 10:51:58;;;;;;;3.70;1.13;;;26.10;52.40;;;;;;5032959;28;20040;-65
2022/07/09 10:54:33;;;;;;;4.95;1.42;;;26.20;50.70;;;;;;5030796;28;20562;-63
2022/07/09 10:57:00;;;;;;;3.03;1.40;;;26.40;51.30;;;;;;5050666;28;20297;-63
2022/07/09 10:59:28;;;;;;;6.88;1.80;;;26.50;49.70;;;;;;5050797;28;21056;-63
2022/07/09 11:01:55;;;;;;;3.95;1.85;;;26.50;49.90;;;;;;5014650;28;20105;-62
2022/07/09 11:04:28;;;;;;;3.55;1.40;;;26.50;51.40;;;;;;5028026;28;20044;-62
2022/07/09 11:06:58;;;;;;;2.67;1.20;;;26.60;50.50;;;;;;5047779;28;20048;-63
2022/07/09 11:09:30;;;;;;;5.72;1.17;;;26.70;48.90;;;;;;5039940;28;20036;-65
2022/07/09 11:11:57;;;;;;;4.30;1.42;;;26.80;48.60;;;;;;5036440;28;20051;-65
2022/07/09 11:14:24;;;;;;;9.05;1.88;;;26.70;47.40;;;;;;5026341;28;20865;-66
2022/07/09 11:16:56;;;;;;;6.57;1.08;;;26.70;48.50;;;;;;5029329;28;20048;-65
2022/07/09 11:19:24;;;;;;;4.50;1.23;;;26.70;48.80;;;;;;5007871;28;20074;-67
2022/07/09 11:22:00;;;;;;;2.38;1.38;;;26.70;49.60;;;;;;5028657;28;20240;-65
2022/07/09 11:24:29;;;;;;;;;;;26.80;49.50;;;;;;5029023;28;20570;-66
2022/07/09 11:27:00;;;;;;;3.25;1.20;;;26.90;50.20;;;;;;5027308;28;19919;-65
2022/07/09 11:29:28;;;;;;;2.78;1.33;;;27.00;50.10;;;;;;5012903;28;20178;-65
2022/07/09 11:31:55;;;;;;;2.92;1.55;;;27.10;47.70;;;;;;5023327;28;20838;-65
2022/07/09 11:34:23;;;;;;;2.80;1.20;;;27.10;49.60;;;;;;5029289;28;20738;-65
2022/07/09 11:36:55;;;;;;;3.35;1.10;;;27.10;48.90;;;;;;5024390;28;20051;-65
2022/07/09 11:39:30;;;;;;;3.22;1.23;;;27.10;50.10;;;;;;5027387;28;20068;-65
2022/07/09 11:41:59;;;;;;;5.75;1.10;;;27.00;48.90;;;;;;5030406;28;20040;-66
2022/07/09 11:44:27;;;;;;;3.88;1.70;;;26.90;48.30;;;;;;5024291;28;20051;-65
2022/07/09 11:47:03;;;;;;;5.10;1.30;;;26.90;47.70;;;;;;5044532;28;20035;-64
2022/07/09 11:49:34;;;;;;;3.17;1.10;;;27.00;48.20;;;;;;5025209;28;20059;-65
2022/07/09 11:52:02;;;;;;;1.60;1.00;;;27.00;49.50;;;;;;5046727;28;20956;-65
2022/07/09 11:54:30;;;;;;;2.60;1.27;;;27.10;49.60;;;;;;5013741;28;20184;-65
2022/07/09 11:56:58;;;;;;;2.35;1.00;;;27.10;46.50;;;;;;5047182;28;20044;-66
2022/07/09 11:59:33;;;;;;;3.03;1.02;;;27.00;47.00;;;;;;5050541;28;20925;-63
2022/07/09 12:02:02;;;;;;;3.42;1.15;;;27.10;46.80;;;;;;5028117;28;20097;-62
2022/07/09 12:04:30;;;;;;;2.63;1.00;;;27.00;46.80;;;;;;5049421;28;20335;-63
2022/07/09 12:06:58;;;;;;;5.63;1.80;;;27.10;46.70;;;;;;5046064;28;20048;-62
2022/07/09 12:09:32;;;;;;;5.80;1.65;;;27.10;47.60;;;;;;5044959;28;20032;-62
2022/07/09 12:11:59;;;;;;;5.90;1.38;;;27.10;47.20;;;;;;5021977;28;20847;-62
2022/07/09 12:14:27;;;;;;;4.05;1.10;;;27.20;46.50;;;;;;5031275;28;20050;-65
2022/07/09 12:16:54;;;;;;;3.85;1.10;;;27.20;46.80;;;;;;5045309;28;20201;-65
2022/07/09 12:19:21;;;;;;;2.50;1.08;;;27.30;44.90;;;;;;5047530;28;20387;-65
2022/07/09 12:21:48;;;;;;;2.90;1.17;;;27.30;43.10;;;;;;5050966;28;20063;-65
2022/07/09 12:24:22;;;;;;;2.53;1.30;;;27.30;45.30;;;;;;5043414;28;20043;-66
2022/07/09 12:26:49;;;;;;;2.95;1.30;;;27.30;45.00;;;;;;5046542;28;20040;-65
2022/07/09 12:29:36;;;;;;;2.80;0.75;;;27.40;42.90;;;;;;5047573;28;20046;-65
2022/07/09 12:32:04;;;;;;;1.15;0.80;;;27.50;41.90;;;;;;5045827;28;20043;-66
2022/07/09 12:34:31;;;;;;;2.05;0.80;;;27.60;44.50;;;;;;5046524;28;20338;-66
2022/07/09 12:37:05;;;;;;;2.78;0.80;;;27.50;42.80;;;;;;5047232;28;20060;-66
2022/07/09 12:39:32;;;;;;;0.98;0.80;;;27.50;42.60;;;;;;5046263;28;20044;-66
2022/07/09 12:42:00;;;;;;;1.80;1.25;;;27.60;43.30;;;;;;5045536;28;20051;-66
2022/07/09 12:44:27;;;;;;;4.80;1.00;;;27.50;43.90;;;;;;5048243;28;20035;-66
2022/07/09 12:46:55;;;;;;;0.98;0.63;;;27.60;43.30;;;;;;5041530;28;20335;-66
2022/07/09 12:49:22;;;;;;;3.75;0.88;;;27.70;44.30;;;;;;5038130;28;20051;-65
2022/07/09 12:51:49;;;;;;;4.05;0.82;;;27.70;44.30;;;;;;5029068;28;20727;-65
2022/07/09 12:54:16;;;;;;;4.25;1.25;;;27.70;45.90;;;;;;4989936;28;20036;-65
2022/07/09 12:56:44;;;;;;;1.55;0.85;;;27.60;44.50;;;;;;5007063;28;20067;-65
2022/07/09 12:59:31;;;;;;;1.17;0.88;;;27.50;43.90;;;;;;5026083;28;20032;-65